Latest Weather Observations for Butlers Gorge

IDT60801

Issued at 9:05 pm EST Tuesday 22 July 2014 (issued every 30 minutes, with the page automatically refreshed every 10 minutes)

About weather observations | Map of weather stations | Latest weather observations for TAS | Other Formats
Station Details ID: 096003 Name: BUTLERS GORGE Lat: -42.28 Lon: 146.28 Height: 667.0 m
Data from the previous 72 hours. | See also: Recent months at Butlers Gorge
Date/Time
EST
Temp
°C
App
Temp
°C
Dew
Point
Rel
Hum
%
Delta-T
°C
Wind Press
QNH
hPa
Press
MSL
hPa
Rain
since 9 am
mm
Dir
 
Spd
km/h
Gust
km/h
Spd
kts
Gust
kts
22/09:00pm 2.9 1.3 2.3 96 0.2 WSW 0 0 0 0 - - 0.0
22/08:30pm 3.3 1.7 2.6 95 0.3 SW 0 0 0 0 - - 0.0
22/08:00pm 3.4 1.5 2.7 95 0.3 W 2 7 1 4 - - 0.0
22/07:30pm 3.5 2.0 2.8 95 0.3 CALM 0 0 0 0 - - 0.0
22/07:00pm 3.7 2.2 3.0 95 0.3 CALM 0 0 0 0 - - 0.0
22/06:30pm 4.0 2.6 3.3 95 0.3 CALM 0 0 0 0 - - 0.0
22/06:00pm 4.2 2.8 3.5 95 0.3 CALM 0 6 0 3 - - 0.0
22/05:30pm 4.4 1.8 3.4 93 0.4 W 6 7 3 4 - - 0.0
22/05:00pm 5.7 4.0 4.0 89 0.8 W 2 9 1 5 - - 0.0
22/04:30pm 7.0 5.8 4.7 85 1.0 CALM 0 0 0 0 - - 0.0
22/04:00pm 7.6 5.8 3.6 76 1.8 NW 2 7 1 4 - - 0.0
22/03:30pm 7.8 5.0 3.3 73 2.0 NW 7 11 4 6 - - 0.0
22/03:00pm 8.1 5.4 3.6 73 2.0 W 7 13 4 7 - - 0.0
22/02:30pm 8.1 5.3 3.2 71 2.2 NW 7 11 4 6 - - 0.0
22/02:00pm 8.2 5.4 3.3 71 2.2 NW 7 11 4 6 - - 0.0
22/01:30pm 8.1 5.4 2.8 69 2.3 NW 6 9 3 5 - - 0.0
22/01:00pm 7.9 5.0 2.8 70 2.2 NNW 7 13 4 7 - - 0.0
22/12:30pm 7.6 5.0 3.1 73 2.0 W 6 9 3 5 - - 0.0
22/12:00pm 5.7 3.0 2.9 82 1.2 WSW 6 7 3 4 - - 0.0
22/11:30am 4.6 1.6 2.1 84 1.0 W 7 11 4 6 - - 0.0
22/11:00am 3.1 -0.7 1.6 90 0.6 W 11 13 6 7 - - 0.0
22/10:30am 1.8 -2.1 0.9 94 0.4 W 11 17 6 9 - - 0.0
22/10:00am 1.3 -2.2 1.0 98 0.1 W 9 13 5 7 - - 0.0
22/09:30am 0.7 -2.6 0.4 98 0.1 W 7 13 4 7 - - 0.0
22/09:00am 0.2 -2.9 -0.1 98 0.1 W 6 9 3 5 - - 0.2
22/08:30am -0.7 -2.8 -1.0 98 0.1 CALM 0 0 0 0 - - 0.2
22/08:00am -0.9 -3.4 -1.2 98 0.1 ENE 2 6 1 3 - - 0.2
22/07:30am -0.7 -2.8 -1.0 98 0.1 CALM 0 0 0 0 - - 0.2
22/07:00am -0.6 -2.7 -0.9 98 0.1 CALM 0 0 0 0 - - 0.2
22/06:30am -0.6 -2.7 -0.9 98 0.1 CALM 0 0 0 0 - - 0.2
22/06:00am -0.6 -2.7 -0.9 98 0.1 WSW 0 0 0 0 - - 0.2
22/05:30am -0.6 -2.7 -0.9 98 0.1 CALM 0 0 0 0 - - 0.2
22/05:00am -0.5 -2.6 -0.8 98 0.1 CALM 0 0 0 0 - - 0.2
22/04:30am -0.4 -2.5 -0.7 98 0.1 CALM 0 0 0 0 - - 0.2
22/04:00am -0.6 -3.5 -0.9 98 0.1 SW 4 7 2 4 - - 0.2
22/03:30am -0.6 -2.7 -0.9 98 0.1 CALM 0 0 0 0 - - 0.2
22/03:00am -0.7 -2.8 -1.0 98 0.1 CALM 0 0 0 0 - - 0.2
22/02:30am -0.6 -2.7 -0.9 98 0.1 CALM 0 0 0 0 - - 0.2
22/02:00am -0.3 -2.4 -0.6 98 0.1 CALM 0 0 0 0 - - 0.2
22/01:30am 0.4 -2.7 0.1 98 0.1 WSW 6 7 3 4 - - 0.2
22/01:00am 0.4 -1.6 0.1 98 0.1 CALM 0 0 0 0 - - 0.2
22/12:30am 0.2 -1.8 -0.1 98 0.1 CALM 0 0 0 0 - - 0.2
22/12:00am 0.2 -1.8 -0.1 98 0.1 SSW 0 0 0 0 - - 0.2
 
Date/Time
EST
Temp
°C
App
Temp
°C
Dew
Point
Rel
Hum
%
Delta-T
°C
Wind Press
QNH
hPa
Press
MSL
hPa
Rain
since 9 am
mm
Dir
 
Spd
km/h
Gust
km/h
Spd
kts
Gust
kts
21/11:30pm 0.1 -1.9 -0.2 98 0.1 CALM 0 0 0 0 - - 0.2
21/11:00pm 0.0 -2.0 -0.3 98 0.1 CALM 0 0 0 0 - - 0.2
21/10:30pm -0.2 -2.3 -0.5 98 0.1 CALM 0 0 0 0 - - 0.2
21/10:00pm -0.6 -2.7 -0.9 98 0.1 CALM 0 0 0 0 - - 0.2
21/09:30pm -1.1 -3.3 -1.5 97 0.1 CALM 0 0 0 0 - - 0.2
21/09:00pm -1.4 -3.6 -1.8 97 0.1 CALM 0 0 0 0 - - 0.2
21/08:30pm -1.0 -3.2 -1.4 97 0.1 CALM 0 0 0 0 - - 0.2
21/08:00pm -0.8 -3.0 -1.2 97 0.1 CALM 0 0 0 0 - - 0.2
21/07:30pm -0.5 -2.6 -1.1 96 0.2 CALM 0 0 0 0 - - 0.2
21/07:00pm -0.2 -2.3 -0.8 96 0.2 CALM 0 0 0 0 - - 0.2
21/06:30pm 0.2 -1.9 -0.5 95 0.3 CALM 0 0 0 0 - - 0.2
21/06:00pm 1.1 -0.9 0.2 94 0.3 CALM 0 0 0 0 - - 0.2
21/05:30pm 2.2 0.4 1.2 93 0.4 CALM 0 0 0 0 - - 0.2
21/05:00pm 3.5 1.9 2.2 91 0.5 CALM 0 0 0 0 - - 0.2
21/04:30pm 4.9 3.4 2.8 86 0.9 CALM 0 0 0 0 - - 0.2
21/04:00pm 6.6 5.3 3.9 83 1.2 CALM 0 0 0 0 - - 0.2
21/03:30pm 7.6 6.2 3.3 74 1.9 CALM 0 0 0 0 - - 0.2
21/03:00pm 9.1 7.0 1.8 60 3.2 W 2 6 1 3 - - 0.0
21/02:30pm 8.9 7.1 1.3 59 3.2 CALM 0 0 0 0 - - 0.0
21/02:00pm 8.6 5.6 1.1 59 3.2 WNW 6 7 3 4 - - 0.0
21/01:30pm 7.6 4.3 0.3 60 3.0 WNW 7 9 4 5 - - 0.0
21/01:00pm 7.0 4.2 2.1 71 2.1 W 6 7 3 4 - - 0.0
21/12:30pm 6.2 4.6 2.7 78 1.5 CALM 0 0 0 0 - - 0.0
21/12:00pm 5.1 3.6 3.1 87 0.9 CALM 0 0 0 0 - - 0.0
21/11:30am 3.9 2.4 3.0 94 0.4 CALM 0 0 0 0 - - 0.0
21/11:00am 3.0 1.4 2.6 97 0.2 CALM 0 0 0 0 - - 0.0
21/10:30am 1.4 -0.4 1.0 97 0.2 CALM 0 0 0 0 - - 0.0
21/10:00am 0.6 -1.4 0.2 97 0.2 CALM 0 0 0 0 - - 0.0
21/09:30am -0.3 -2.4 -0.7 97 0.1 CALM 0 0 0 0 - - 0.0
21/09:00am -1.1 -3.3 -1.4 98 0.1 CALM 0 0 0 0 - - 0.0
21/08:30am -1.3 -3.5 -1.6 98 0.0 CALM 0 0 0 0 - - 0.0
21/08:00am -1.5 -3.7 -1.8 98 0.0 CALM 0 0 0 0 - - 0.0
21/07:30am -1.3 -3.5 -1.6 98 0.0 CALM 0 0 0 0 - - 0.0
21/07:00am -1.2 -3.4 -1.5 98 0.1 CALM 0 0 0 0 - - 0.0
21/06:30am -0.7 -3.2 -1.0 98 0.1 S 2 6 1 3 - - 0.0
21/06:00am -1.2 -3.4 -1.5 98 0.1 CALM 0 0 0 0 - - 0.0
21/05:30am -0.8 -2.9 -1.1 98 0.1 CALM 0 0 0 0 - - 0.0
21/05:00am -0.8 -2.9 -1.1 98 0.1 CALM 0 0 0 0 - - 0.0
21/04:30am -0.8 -3.3 -1.1 98 0.1 WSW 2 6 1 3 - - 0.0
21/04:00am -0.6 -2.7 -0.9 98 0.1 CALM 0 0 0 0 - - 0.0
21/03:30am -0.7 -2.8 -1.0 98 0.1 CALM 0 0 0 0 - - 0.0
21/03:00am -0.3 -2.4 -0.6 98 0.1 CALM 0 0 0 0 - - 0.0
21/02:30am -0.2 -2.3 -0.5 98 0.1 CALM 0 0 0 0 - - 0.0
21/02:00am 0.0 -2.0 -0.3 98 0.1 CALM 0 0 0 0 - - 0.0
21/01:30am 0.5 -1.5 0.2 98 0.1 CALM 0 0 0 0 - - 0.0
21/01:00am 0.7 -1.2 0.4 98 0.1 CALM 0 0 0 0 - - 0.0
21/12:30am 1.0 -0.9 0.7 98 0.1 CALM 0 0 0 0 - - 0.0
21/12:00am 1.0 -0.8 0.9 99 0.0 CALM 0 0 0 0 - - 0.0
 
Date/Time
EST
Temp
°C
App
Temp
°C
Dew
Point
Rel
Hum
%
Delta-T
°C
Wind Press
QNH
hPa
Press
MSL
hPa
Rain
since 9 am
mm
Dir
 
Spd
km/h
Gust
km/h
Spd
kts
Gust
kts
20/11:30pm 1.0 -0.9 0.7 98 0.1 CALM 0 0 0 0 - - 0.0
20/11:00pm 0.9 -1.0 0.6 98 0.1 CALM 0 0 0 0 - - 0.0
20/10:30pm 0.6 -1.3 0.3 98 0.1 CALM 0 0 0 0 - - 0.0
20/10:00pm 0.7 -1.2 0.4 98 0.1 CALM 0 0 0 0 - - 0.0
20/09:30pm 0.2 -1.8 -0.1 98 0.1 CALM 0 0 0 0 - - 0.0
20/09:00pm 0.0 -2.0 -0.3 98 0.1 CALM 0 0 0 0 - - 0.0
20/08:30pm -0.6 -2.7 -0.9 98 0.1 CALM 0 0 0 0 - - 0.0
20/08:00pm -1.2 -3.4 -1.8 96 0.2 CALM 0 0 0 0 - - 0.0
20/07:30pm -0.8 -3.0 -1.4 96 0.2 CALM 0 0 0 0 - - 0.0
20/07:00pm 0.3 -1.7 -0.1 97 0.2 CALM 0 0 0 0 - - 0.0
20/06:30pm 0.6 -1.4 -0.1 95 0.3 CALM 0 0 0 0 - - 0.0
20/06:00pm 1.3 -0.6 0.4 94 0.3 CALM 0 0 0 0 - - 0.0
20/05:30pm 2.9 1.2 1.6 91 0.5 CALM 0 0 0 0 - - 0.0
20/05:00pm 4.7 3.2 3.2 90 0.6 CALM 0 0 0 0 - - 0.0
20/04:30pm 7.2 5.1 4.0 80 1.4 W 4 9 2 5 - - 0.0
20/04:00pm 8.4 5.9 4.0 74 2.0 WNW 6 7 3 4 - - 0.0
20/03:30pm 9.0 6.4 4.2 72 2.2 NNW 7 11 4 6 - - 0.0
20/03:00pm 9.0 6.6 4.2 72 2.2 WNW 6 9 3 5 - - 0.0
20/02:30pm 9.0 6.4 4.0 71 2.3 NW 7 11 4 6 - - 0.0
20/02:00pm 8.7 6.1 4.3 74 2.0 W 7 11 4 6 - - 0.0
20/01:30pm 8.9 6.4 4.5 74 2.0 WNW 7 13 4 7 - - 0.0
20/01:00pm 8.1 5.5 4.3 77 1.7 W 7 13 4 7 - - 0.0
20/12:30pm 7.4 4.3 3.5 76 1.7 WSW 9 13 5 7 - - 0.0
20/12:00pm 6.9 4.4 3.5 79 1.5 WNW 6 11 3 6 - - 0.0
20/11:30am 7.3 4.7 4.1 80 1.4 NW 7 13 4 7 - - 0.0
20/11:00am 6.6 4.0 4.3 85 1.0 NW 7 11 4 6 - - 0.0
20/10:30am 5.0 2.2 3.2 88 0.8 W 7 11 4 6 - - 0.0
20/10:00am 4.8 2.0 3.0 88 0.8 NNW 7 13 4 7 - - 0.0
20/09:30am 4.1 1.5 3.1 93 0.4 N 6 11 3 6 - - 0.0
20/09:00am 3.5 1.7 3.4 99 0.0 WSW 2 6 1 3 - - 0.0
20/08:30am 2.6 0.6 2.5 99 0.0 WSW 2 7 1 4 - - 0.0
20/08:00am 1.2 -0.6 0.9 98 0.1 CALM 0 0 0 0 - - 0.0
20/07:30am 1.1 -0.8 0.8 98 0.1 CALM 0 0 0 0 - - 0.0
20/07:00am 1.3 -0.5 1.0 98 0.1 CALM 0 6 0 3 - - 0.0
20/06:30am 1.4 -0.4 1.3 99 0.0 CALM 0 0 0 0 - - 0.0
20/06:00am 1.4 -0.4 1.1 98 0.1 CALM 0 6 0 3 - - 0.0
20/05:30am 1.7 0.0 1.6 99 0.0 CALM 0 0 0 0 - - 0.0
20/05:00am 1.7 -0.1 1.4 98 0.1 CALM 0 0 0 0 - - 0.0
20/04:30am 1.9 -0.2 1.8 99 0.0 SW 2 6 1 3 - - 0.0
20/04:00am 1.7 -0.1 1.4 98 0.1 CALM 0 0 0 0 - - 0.0
20/03:30am 1.8 0.0 1.5 98 0.1 CALM 0 0 0 0 - - 0.0
20/03:00am 2.4 0.0 2.3 99 0.0 WSW 4 7 2 4 - - 0.0
20/02:30am 2.0 0.3 1.7 98 0.1 CALM 0 0 0 0 - - 0.0
20/02:00am 2.3 -0.5 2.0 98 0.1 W 6 6 3 3 - - 0.0
20/01:30am 2.4 0.8 2.3 99 0.0 CALM 0 0 0 0 - - 0.0
20/01:00am 2.2 0.5 1.9 98 0.1 CALM 0 4 0 2 - - 0.0
20/12:30am 2.4 0.4 2.3 99 0.0 W 2 7 1 4 - - 0.0
20/12:00am 2.7 0.0 2.6 99 0.0 W 6 7 3 4 - - 0.0
 
Date/Time
EST
Temp
°C
App
Temp
°C
Dew
Point
Rel
Hum
%
Delta-T
°C
Wind Press
QNH
hPa
Press
MSL
hPa
Rain
since 9 am
mm
Dir
 
Spd
km/h
Gust
km/h
Spd
kts
Gust
kts
19/11:30pm 2.0 -0.1 1.7 98 0.1 WSW 2 6 1 3 - - 0.0
19/11:00pm 1.8 0.0 1.5 98 0.1 CALM 0 2 0 1 - - 0.0
19/10:30pm 1.8 -1.1 1.5 98 0.1 W 6 9 3 5 - - 0.0
19/10:00pm 1.3 -0.5 1.0 98 0.1 CALM 0 0 0 0 - - 0.0
19/09:30pm 1.3 -0.5 1.0 98 0.1 CALM 0 0 0 0 - - 0.0

Other Formats:

Comma delimited format used in spreadsheet applications
http://www.bom.gov.au/fwo/IDT60801/IDT60801.94959.axf

JavaScript Object Notation format (JSON) in row-major order
http://www.bom.gov.au/fwo/IDT60801/IDT60801.94959.json